sensor_id;sensor_type;location;lat;lon;timestamp;P1;durP1;ratioP1;P2;durP2;ratioP2
79036;SDS011;68434;59.896;30.474;2023-06-01T00:00:23;7.90;;;4.22;;
79036;SDS011;68434;59.896;30.474;2023-06-01T00:02:51;7.63;;;3.72;;
79036;SDS011;68434;59.896;30.474;2023-06-01T00:05:18;8.43;;;4.25;;
79036;SDS011;68434;59.896;30.474;2023-06-01T00:07:46;7.43;;;4.05;;
79036;SDS011;68434;59.896;30.474;2023-06-01T00:10:15;7.18;;;4.60;;
79036;SDS011;68434;59.896;30.474;2023-06-01T00:12:42;10.00;;;4.68;;
79036;SDS011;68434;59.896;30.474;2023-06-01T00:15:10;7.85;;;3.83;;
79036;SDS011;68434;59.896;30.474;2023-06-01T00:17:37;8.60;;;4.10;;
79036;SDS011;68434;59.896;30.474;2023-06-01T00:20:06;8.32;;;4.13;;
79036;SDS011;68434;59.896;30.474;2023-06-01T00:22:34;8.65;;;4.53;;
79036;SDS011;68434;59.896;30.474;2023-06-01T00:25:05;9.10;;;4.60;;
79036;SDS011;68434;59.896;30.474;2023-06-01T00:30:01;11.32;;;4.30;;
79036;SDS011;68434;59.896;30.474;2023-06-01T00:32:33;6.72;;;3.17;;
79036;SDS011;68434;59.896;30.474;2023-06-01T00:35:01;5.88;;;3.20;;
79036;SDS011;68434;59.896;30.474;2023-06-01T00:37:29;8.75;;;3.63;;
79036;SDS011;68434;59.896;30.474;2023-06-01T00:39:57;6.10;;;3.20;;
79036;SDS011;68434;59.896;30.474;2023-06-01T00:42:24;7.25;;;3.42;;
79036;SDS011;68434;59.896;30.474;2023-06-01T00:44:54;5.90;;;2.92;;
79036;SDS011;68434;59.896;30.474;2023-06-01T00:47:25;5.55;;;3.05;;
79036;SDS011;68434;59.896;30.474;2023-06-01T00:49:52;5.68;;;3.17;;
79036;SDS011;68434;59.896;30.474;2023-06-01T00:52:20;5.18;;;3.25;;
79036;SDS011;68434;59.896;30.474;2023-06-01T00:54:49;9.60;;;3.60;;
79036;SDS011;68434;59.896;30.474;2023-06-01T00:57:16;7.47;;;3.17;;
79036;SDS011;68434;59.896;30.474;2023-06-01T00:59:46;6.45;;;3.35;;
79036;SDS011;68434;59.896;30.474;2023-06-01T01:02:15;7.43;;;3.58;;
79036;SDS011;68434;59.896;30.474;2023-06-01T01:04:44;7.10;;;3.03;;
79036;SDS011;68434;59.896;30.474;2023-06-01T01:07:21;7.65;;;3.67;;
79036;SDS011;68434;59.896;30.474;2023-06-01T01:09:59;9.30;;;3.97;;
79036;SDS011;68434;59.896;30.474;2023-06-01T01:12:38;8.07;;;4.32;;
79036;SDS011;68434;59.896;30.474;2023-06-01T01:15:14;8.00;;;3.65;;
79036;SDS011;68434;59.896;30.474;2023-06-01T01:17:50;7.68;;;3.60;;
79036;SDS011;68434;59.896;30.474;2023-06-01T01:20:22;9.27;;;4.38;;
79036;SDS011;68434;59.896;30.474;2023-06-01T01:23:10;6.43;;;3.78;;
79036;SDS011;68434;59.896;30.474;2023-06-01T01:28:43;5.82;;;3.22;;
79036;SDS011;68434;59.896;30.474;2023-06-01T01:31:16;9.00;;;3.80;;
79036;SDS011;68434;59.896;30.474;2023-06-01T01:33:46;5.93;;;3.55;;
79036;SDS011;68434;59.896;30.474;2023-06-01T01:36:15;7.10;;;2.92;;
79036;SDS011;68434;59.896;30.474;2023-06-01T01:38:43;6.90;;;3.20;;
79036;SDS011;68434;59.896;30.474;2023-06-01T01:41:11;7.50;;;3.55;;
79036;SDS011;68434;59.896;30.474;2023-06-01T01:43:39;8.80;;;3.40;;
79036;SDS011;68434;59.896;30.474;2023-06-01T01:46:14;8.05;;;3.17;;
79036;SDS011;68434;59.896;30.474;2023-06-01T01:48:54;10.63;;;3.65;;
79036;SDS011;68434;59.896;30.474;2023-06-01T01:51:31;5.25;;;3.17;;
79036;SDS011;68434;59.896;30.474;2023-06-01T01:54:04;5.13;;;2.95;;
79036;SDS011;68434;59.896;30.474;2023-06-01T01:56:34;6.38;;;3.40;;
79036;SDS011;68434;59.896;30.474;2023-06-01T01:59:03;7.07;;;3.15;;
79036;SDS011;68434;59.896;30.474;2023-06-01T02:01:33;7.88;;;3.65;;
79036;SDS011;68434;59.896;30.474;2023-06-01T02:04:01;6.43;;;3.28;;
79036;SDS011;68434;59.896;30.474;2023-06-01T02:06:29;6.60;;;3.25;;
79036;SDS011;68434;59.896;30.474;2023-06-01T02:08:58;8.60;;;3.90;;
79036;SDS011;68434;59.896;30.474;2023-06-01T02:13:54;6.65;;;3.28;;
79036;SDS011;68434;59.896;30.474;2023-06-01T02:16:22;7.20;;;3.42;;
79036;SDS011;68434;59.896;30.474;2023-06-01T02:18:51;8.07;;;4.55;;
79036;SDS011;68434;59.896;30.474;2023-06-01T02:21:19;9.65;;;3.92;;
79036;SDS011;68434;59.896;30.474;2023-06-01T02:23:48;7.97;;;4.18;;
79036;SDS011;68434;59.896;30.474;2023-06-01T02:26:16;10.02;;;4.45;;
79036;SDS011;68434;59.896;30.474;2023-06-01T02:28:44;10.35;;;5.15;;
79036;SDS011;68434;59.896;30.474;2023-06-01T02:31:12;9.20;;;4.85;;
79036;SDS011;68434;59.896;30.474;2023-06-01T02:33:40;12.65;;;4.82;;
79036;SDS011;68434;59.896;30.474;2023-06-01T02:36:09;9.35;;;5.10;;
79036;SDS011;68434;59.896;30.474;2023-06-01T02:38:37;12.13;;;5.30;;
79036;SDS011;68434;59.896;30.474;2023-06-01T02:41:05;8.02;;;5.35;;
79036;SDS011;68434;59.896;30.474;2023-06-01T02:43:33;9.90;;;5.22;;
79036;SDS011;68434;59.896;30.474;2023-06-01T02:48:30;10.27;;;4.70;;
79036;SDS011;68434;59.896;30.474;2023-06-01T02:50:57;7.22;;;4.43;;
79036;SDS011;68434;59.896;30.474;2023-06-01T02:53:27;9.02;;;4.32;;
79036;SDS011;68434;59.896;30.474;2023-06-01T02:55:54;9.52;;;4.20;;
79036;SDS011;68434;59.896;30.474;2023-06-01T02:58:41;7.95;;;4.70;;
79036;SDS011;68434;59.896;30.474;2023-06-01T03:01:31;9.07;;;3.70;;
79036;SDS011;68434;59.896;30.474;2023-06-01T03:04:02;8.25;;;4.75;;
79036;SDS011;68434;59.896;30.474;2023-06-01T03:06:31;8.93;;;4.40;;
79036;SDS011;68434;59.896;30.474;2023-06-01T03:09:23;7.78;;;3.78;;
79036;SDS011;68434;59.896;30.474;2023-06-01T03:11:59;7.10;;;4.38;;
79036;SDS011;68434;59.896;30.474;2023-06-01T03:14:29;6.25;;;3.60;;
79036;SDS011;68434;59.896;30.474;2023-06-01T03:16:57;6.97;;;4.00;;
79036;SDS011;68434;59.896;30.474;2023-06-01T03:19:25;8.10;;;4.40;;
79036;SDS011;68434;59.896;30.474;2023-06-01T03:21:55;7.88;;;4.28;;
79036;SDS011;68434;59.896;30.474;2023-06-01T03:24:24;10.68;;;4.20;;
79036;SDS011;68434;59.896;30.474;2023-06-01T03:26:55;11.70;;;5.03;;
79036;SDS011;68434;59.896;30.474;2023-06-01T03:29:24;7.45;;;4.28;;
79036;SDS011;68434;59.896;30.474;2023-06-01T03:31:52;7.70;;;4.20;;
79036;SDS011;68434;59.896;30.474;2023-06-01T03:34:22;5.20;;;3.65;;
79036;SDS011;68434;59.896;30.474;2023-06-01T03:36:52;6.20;;;3.60;;
79036;SDS011;68434;59.896;30.474;2023-06-01T03:39:20;7.80;;;3.85;;
79036;SDS011;68434;59.896;30.474;2023-06-01T03:41:49;7.88;;;3.47;;
79036;SDS011;68434;59.896;30.474;2023-06-01T03:44:16;7.72;;;3.40;;
79036;SDS011;68434;59.896;30.474;2023-06-01T03:46:45;6.55;;;3.67;;
79036;SDS011;68434;59.896;30.474;2023-06-01T03:49:13;5.35;;;3.50;;
79036;SDS011;68434;59.896;30.474;2023-06-01T03:51:41;6.63;;;3.75;;
79036;SDS011;68434;59.896;30.474;2023-06-01T03:54:09;9.77;;;3.72;;
79036;SDS011;68434;59.896;30.474;2023-06-01T03:56:37;6.97;;;3.97;;
79036;SDS011;68434;59.896;30.474;2023-06-01T03:59:06;6.30;;;3.85;;
79036;SDS011;68434;59.896;30.474;2023-06-01T04:01:37;8.55;;;3.75;;
79036;SDS011;68434;59.896;30.474;2023-06-01T04:04:05;6.97;;;3.58;;
79036;SDS011;68434;59.896;30.474;2023-06-01T04:06:34;8.23;;;4.00;;
79036;SDS011;68434;59.896;30.474;2023-06-01T04:11:33;9.55;;;3.75;;
79036;SDS011;68434;59.896;30.474;2023-06-01T04:14:01;9.27;;;3.13;;
79036;SDS011;68434;59.896;30.474;2023-06-01T04:16:30;7.10;;;3.28;;
79036;SDS011;68434;59.896;30.474;2023-06-01T04:18:58;8.13;;;3.05;;
79036;SDS011;68434;59.896;30.474;2023-06-01T04:21:29;6.13;;;3.25;;
79036;SDS011;68434;59.896;30.474;2023-06-01T04:23:58;6.22;;;2.60;;
79036;SDS011;68434;59.896;30.474;2023-06-01T04:26:27;4.47;;;2.40;;
79036;SDS011;68434;59.896;30.474;2023-06-01T04:28:57;6.03;;;2.53;;
79036;SDS011;68434;59.896;30.474;2023-06-01T04:31:26;4.30;;;2.85;;
79036;SDS011;68434;59.896;30.474;2023-06-01T04:33:55;4.38;;;2.20;;
79036;SDS011;68434;59.896;30.474;2023-06-01T04:36:28;5.45;;;2.58;;
79036;SDS011;68434;59.896;30.474;2023-06-01T04:38:58;7.57;;;2.88;;
79036;SDS011;68434;59.896;30.474;2023-06-01T04:41:29;5.28;;;2.80;;
79036;SDS011;68434;59.896;30.474;2023-06-01T04:43:58;7.07;;;2.47;;
79036;SDS011;68434;59.896;30.474;2023-06-01T04:46:26;5.68;;;2.70;;
79036;SDS011;68434;59.896;30.474;2023-06-01T04:48:58;7.75;;;2.92;;
79036;SDS011;68434;59.896;30.474;2023-06-01T04:51:27;5.82;;;2.50;;
79036;SDS011;68434;59.896;30.474;2023-06-01T04:53:56;5.15;;;2.20;;
79036;SDS011;68434;59.896;30.474;2023-06-01T04:56:24;7.25;;;2.30;;
79036;SDS011;68434;59.896;30.474;2023-06-01T04:58:54;6.25;;;2.20;;
79036;SDS011;68434;59.896;30.474;2023-06-01T05:01:25;5.70;;;2.35;;
79036;SDS011;68434;59.896;30.474;2023-06-01T05:05:35;5.70;;;2.35;;
79036;SDS011;68434;59.896;30.474;2023-06-01T05:08:06;5.80;;;2.38;;
79036;SDS011;68434;59.896;30.474;2023-06-01T05:10:34;5.10;;;1.90;;
79036;SDS011;68434;59.896;30.474;2023-06-01T05:13:02;5.80;;;1.92;;
79036;SDS011;68434;59.896;30.474;2023-06-01T05:15:29;3.15;;;1.70;;
79036;SDS011;68434;59.896;30.474;2023-06-01T05:17:57;5.32;;;1.85;;
79036;SDS011;68434;59.896;30.474;2023-06-01T05:21:02;2.78;;;1.50;;
79036;SDS011;68434;59.896;30.474;2023-06-01T05:23:30;4.47;;;2.08;;
79036;SDS011;68434;59.896;30.474;2023-06-01T05:25:58;3.33;;;1.92;;
79036;SDS011;68434;59.896;30.474;2023-06-01T05:28:46;5.28;;;1.70;;
79036;SDS011;68434;59.896;30.474;2023-06-01T05:31:13;3.50;;;1.70;;
79036;SDS011;68434;59.896;30.474;2023-06-01T05:34:17;5.60;;;1.95;;
79036;SDS011;68434;59.896;30.474;2023-06-01T05:36:46;3.67;;;1.85;;
79036;SDS011;68434;59.896;30.474;2023-06-01T05:39:14;4.25;;;1.90;;
79036;SDS011;68434;59.896;30.474;2023-06-01T05:41:42;5.97;;;2.00;;
79036;SDS011;68434;59.896;30.474;2023-06-01T05:44:10;2.80;;;1.45;;
79036;SDS011;68434;59.896;30.474;2023-06-01T05:46:38;6.53;;;2.05;;
79036;SDS011;68434;59.896;30.474;2023-06-01T05:49:06;3.00;;;1.58;;
79036;SDS011;68434;59.896;30.474;2023-06-01T05:51:34;3.88;;;2.50;;
79036;SDS011;68434;59.896;30.474;2023-06-01T05:54:21;3.30;;;1.70;;
79036;SDS011;68434;59.896;30.474;2023-06-01T05:56:50;3.85;;;1.60;;
79036;SDS011;68434;59.896;30.474;2023-06-01T05:59:18;3.67;;;1.70;;
79036;SDS011;68434;59.896;30.474;2023-06-01T06:01:46;3.72;;;1.75;;
79036;SDS011;68434;59.896;30.474;2023-06-01T06:04:14;5.00;;;1.85;;
79036;SDS011;68434;59.896;30.474;2023-06-01T06:06:42;3.92;;;1.60;;
79036;SDS011;68434;59.896;30.474;2023-06-01T06:09:09;4.03;;;1.60;;
79036;SDS011;68434;59.896;30.474;2023-06-01T06:11:40;3.03;;;1.33;;
79036;SDS011;68434;59.896;30.474;2023-06-01T06:14:09;4.60;;;1.40;;
79036;SDS011;68434;59.896;30.474;2023-06-01T06:16:39;2.97;;;1.33;;
79036;SDS011;68434;59.896;30.474;2023-06-01T06:19:08;2.65;;;1.40;;
79036;SDS011;68434;59.896;30.474;2023-06-01T06:21:37;3.55;;;1.52;;
79036;SDS011;68434;59.896;30.474;2023-06-01T06:26:32;3.67;;;1.42;;
79036;SDS011;68434;59.896;30.474;2023-06-01T06:29:01;4.32;;;1.77;;
79036;SDS011;68434;59.896;30.474;2023-06-01T06:31:29;4.95;;;1.50;;
79036;SDS011;68434;59.896;30.474;2023-06-01T06:33:56;5.90;;;2.47;;
79036;SDS011;68434;59.896;30.474;2023-06-01T06:36:24;6.03;;;2.42;;
79036;SDS011;68434;59.896;30.474;2023-06-01T06:38:51;6.00;;;2.53;;
79036;SDS011;68434;59.896;30.474;2023-06-01T06:41:19;7.10;;;2.35;;
79036;SDS011;68434;59.896;30.474;2023-06-01T06:43:47;5.07;;;2.50;;
79036;SDS011;68434;59.896;30.474;2023-06-01T06:46:33;4.95;;;1.70;;
79036;SDS011;68434;59.896;30.474;2023-06-01T06:49:01;6.03;;;2.10;;
79036;SDS011;68434;59.896;30.474;2023-06-01T06:51:29;3.90;;;1.60;;
79036;SDS011;68434;59.896;30.474;2023-06-01T06:53:56;4.65;;;1.30;;
79036;SDS011;68434;59.896;30.474;2023-06-01T06:56:46;2.35;;;1.27;;
79036;SDS011;68434;59.896;30.474;2023-06-01T06:59:16;3.50;;;1.50;;
79036;SDS011;68434;59.896;30.474;2023-06-01T07:01:45;2.90;;;1.50;;
79036;SDS011;68434;59.896;30.474;2023-06-01T07:04:13;3.85;;;1.52;;
79036;SDS011;68434;59.896;30.474;2023-06-01T07:06:41;5.53;;;1.58;;
79036;SDS011;68434;59.896;30.474;2023-06-01T07:09:09;4.60;;;1.92;;
79036;SDS011;68434;59.896;30.474;2023-06-01T07:11:36;6.70;;;1.83;;
79036;SDS011;68434;59.896;30.474;2023-06-01T07:14:04;4.63;;;1.83;;
79036;SDS011;68434;59.896;30.474;2023-06-01T07:16:32;2.67;;;1.50;;
79036;SDS011;68434;59.896;30.474;2023-06-01T07:19:01;4.40;;;1.50;;
79036;SDS011;68434;59.896;30.474;2023-06-01T07:24:33;5.68;;;1.52;;
79036;SDS011;68434;59.896;30.474;2023-06-01T07:27:01;4.53;;;1.67;;
79036;SDS011;68434;59.896;30.474;2023-06-01T07:29:29;3.28;;;1.50;;
79036;SDS011;68434;59.896;30.474;2023-06-01T07:31:58;11.38;;;1.90;;
79036;SDS011;68434;59.896;30.474;2023-06-01T07:34:27;5.72;;;1.67;;
79036;SDS011;68434;59.896;30.474;2023-06-01T07:36:54;5.57;;;1.50;;
79036;SDS011;68434;59.896;30.474;2023-06-01T07:39:24;6.63;;;1.70;;
79036;SDS011;68434;59.896;30.474;2023-06-01T07:41:52;4.43;;;1.38;;
79036;SDS011;68434;59.896;30.474;2023-06-01T07:44:27;4.38;;;1.50;;
79036;SDS011;68434;59.896;30.474;2023-06-01T07:46:55;2.53;;;1.48;;
79036;SDS011;68434;59.896;30.474;2023-06-01T07:49:22;2.83;;;1.40;;
79036;SDS011;68434;59.896;30.474;2023-06-01T07:51:52;4.40;;;1.48;;
79036;SDS011;68434;59.896;30.474;2023-06-01T07:54:19;3.22;;;1.40;;
79036;SDS011;68434;59.896;30.474;2023-06-01T07:56:47;3.78;;;1.42;;
79036;SDS011;68434;59.896;30.474;2023-06-01T07:59:15;2.72;;;1.27;;
79036;SDS011;68434;59.896;30.474;2023-06-01T08:01:43;3.47;;;1.50;;
79036;SDS011;68434;59.896;30.474;2023-06-01T08:04:10;3.88;;;1.50;;
79036;SDS011;68434;59.896;30.474;2023-06-01T08:06:38;2.90;;;1.63;;
79036;SDS011;68434;59.896;30.474;2023-06-01T08:09:09;5.60;;;1.60;;
79036;SDS011;68434;59.896;30.474;2023-06-01T08:11:37;3.33;;;1.45;;
79036;SDS011;68434;59.896;30.474;2023-06-01T08:14:04;3.75;;;1.30;;
79036;SDS011;68434;59.896;30.474;2023-06-01T08:16:35;4.40;;;1.40;;
79036;SDS011;68434;59.896;30.474;2023-06-01T08:19:02;2.38;;;1.30;;
79036;SDS011;68434;59.896;30.474;2023-06-01T08:21:31;5.25;;;1.58;;
79036;SDS011;68434;59.896;30.474;2023-06-01T08:23:59;2.78;;;1.50;;
79036;SDS011;68434;59.896;30.474;2023-06-01T08:26:29;3.10;;;1.40;;
79036;SDS011;68434;59.896;30.474;2023-06-01T08:28:57;5.63;;;1.75;;
79036;SDS011;68434;59.896;30.474;2023-06-01T08:31:25;3.05;;;1.35;;
79036;SDS011;68434;59.896;30.474;2023-06-01T08:33:52;5.97;;;1.52;;
79036;SDS011;68434;59.896;30.474;2023-06-01T08:38:48;3.58;;;1.75;;
79036;SDS011;68434;59.896;30.474;2023-06-01T08:41:17;3.10;;;1.35;;
79036;SDS011;68434;59.896;30.474;2023-06-01T08:46:22;2.28;;;1.13;;
79036;SDS011;68434;59.896;30.474;2023-06-01T08:48:53;3.20;;;1.17;;
79036;SDS011;68434;59.896;30.474;2023-06-01T08:51:24;3.13;;;1.20;;
79036;SDS011;68434;59.896;30.474;2023-06-01T08:53:53;4.13;;;1.60;;
79036;SDS011;68434;59.896;30.474;2023-06-01T08:56:22;6.13;;;1.60;;
79036;SDS011;68434;59.896;30.474;2023-06-01T09:01:19;3.97;;;1.20;;
79036;SDS011;68434;59.896;30.474;2023-06-01T09:03:48;20.67;;;10.38;;
79036;SDS011;68434;59.896;30.474;2023-06-01T09:06:17;20.23;;;9.88;;
79036;SDS011;68434;59.896;30.474;2023-06-01T09:11:32;3.05;;;1.75;;
79036;SDS011;68434;59.896;30.474;2023-06-01T09:14:21;14.40;;;6.78;;
79036;SDS011;68434;59.896;30.474;2023-06-01T09:19:41;16.27;;;7.53;;
79036;SDS011;68434;59.896;30.474;2023-06-01T09:22:10;8.40;;;2.30;;
79036;SDS011;68434;59.896;30.474;2023-06-01T09:24:38;10.07;;;4.07;;
79036;SDS011;68434;59.896;30.474;2023-06-01T09:27:07;4.20;;;1.75;;
79036;SDS011;68434;59.896;30.474;2023-06-01T09:29:35;3.55;;;1.35;;
79036;SDS011;68434;59.896;30.474;2023-06-01T09:32:03;4.65;;;1.60;;
79036;SDS011;68434;59.896;30.474;2023-06-01T09:34:33;3.70;;;1.38;;
79036;SDS011;68434;59.896;30.474;2023-06-01T09:37:11;6.05;;;1.70;;
79036;SDS011;68434;59.896;30.474;2023-06-01T09:39:39;4.55;;;1.40;;
79036;SDS011;68434;59.896;30.474;2023-06-01T09:42:07;3.08;;;1.50;;
79036;SDS011;68434;59.896;30.474;2023-06-01T09:44:36;4.65;;;1.65;;
79036;SDS011;68434;59.896;30.474;2023-06-01T09:47:05;6.65;;;1.25;;
79036;SDS011;68434;59.896;30.474;2023-06-01T09:49:37;3.53;;;1.40;;
79036;SDS011;68434;59.896;30.474;2023-06-01T09:52:09;3.53;;;1.42;;
79036;SDS011;68434;59.896;30.474;2023-06-01T09:57:09;7.15;;;3.67;;
79036;SDS011;68434;59.896;30.474;2023-06-01T09:59:38;3.00;;;1.50;;
79036;SDS011;68434;59.896;30.474;2023-06-01T10:02:11;3.67;;;1.40;;
79036;SDS011;68434;59.896;30.474;2023-06-01T10:04:42;4.15;;;1.60;;
79036;SDS011;68434;59.896;30.474;2023-06-01T10:07:12;3.72;;;1.42;;
79036;SDS011;68434;59.896;30.474;2023-06-01T10:09:41;3.60;;;1.60;;
79036;SDS011;68434;59.896;30.474;2023-06-01T10:12:10;5.25;;;1.60;;
79036;SDS011;68434;59.896;30.474;2023-06-01T10:14:38;4.22;;;1.63;;
79036;SDS011;68434;59.896;30.474;2023-06-01T10:17:06;4.85;;;1.38;;
79036;SDS011;68434;59.896;30.474;2023-06-01T10:19:36;4.47;;;1.65;;
79036;SDS011;68434;59.896;30.474;2023-06-01T10:22:06;5.47;;;1.48;;
79036;SDS011;68434;59.896;30.474;2023-06-01T10:24:34;4.93;;;1.70;;
79036;SDS011;68434;59.896;30.474;2023-06-01T10:27:09;7.30;;;2.67;;
79036;SDS011;68434;59.896;30.474;2023-06-01T10:29:45;7.38;;;1.88;;
79036;SDS011;68434;59.896;30.474;2023-06-01T10:35:09;5.90;;;2.03;;
79036;SDS011;68434;59.896;30.474;2023-06-01T10:43:56;4.50;;;1.40;;
79036;SDS011;68434;59.896;30.474;2023-06-01T10:46:40;4.22;;;1.40;;
79036;SDS011;68434;59.896;30.474;2023-06-01T10:49:08;7.38;;;1.45;;
79036;SDS011;68434;59.896;30.474;2023-06-01T10:51:36;6.65;;;1.80;;
79036;SDS011;68434;59.896;30.474;2023-06-01T11:00:11;5.13;;;1.55;;
79036;SDS011;68434;59.896;30.474;2023-06-01T11:05:33;4.88;;;1.20;;
79036;SDS011;68434;59.896;30.474;2023-06-01T11:08:06;5.38;;;1.40;;
79036;SDS011;68434;59.896;30.474;2023-06-01T11:13:30;10.93;;;1.83;;
79036;SDS011;68434;59.896;30.474;2023-06-01T11:18:56;4.30;;;1.70;;
79036;SDS011;68434;59.896;30.474;2023-06-01T11:21:26;6.35;;;1.85;;
79036;SDS011;68434;59.896;30.474;2023-06-01T11:23:55;7.35;;;1.85;;
79036;SDS011;68434;59.896;30.474;2023-06-01T11:26:29;5.13;;;1.70;;
79036;SDS011;68434;59.896;30.474;2023-06-01T11:29:05;6.57;;;1.92;;
79036;SDS011;68434;59.896;30.474;2023-06-01T11:31:35;4.18;;;1.70;;
79036;SDS011;68434;59.896;30.474;2023-06-01T11:34:06;3.75;;;1.50;;
79036;SDS011;68434;59.896;30.474;2023-06-01T11:36:40;8.75;;;1.50;;
79036;SDS011;68434;59.896;30.474;2023-06-01T11:39:19;6.38;;;1.42;;
79036;SDS011;68434;59.896;30.474;2023-06-01T11:41:51;2.88;;;1.15;;
79036;SDS011;68434;59.896;30.474;2023-06-01T11:44:20;4.90;;;1.50;;
79036;SDS011;68434;59.896;30.474;2023-06-01T11:46:51;6.15;;;1.75;;
79036;SDS011;68434;59.896;30.474;2023-06-01T11:49:22;5.10;;;1.58;;
79036;SDS011;68434;59.896;30.474;2023-06-01T11:51:50;3.42;;;1.33;;
79036;SDS011;68434;59.896;30.474;2023-06-01T11:54:22;3.50;;;1.23;;
79036;SDS011;68434;59.896;30.474;2023-06-01T11:56:54;3.00;;;1.30;;
79036;SDS011;68434;59.896;30.474;2023-06-01T11:59:22;4.55;;;1.60;;
79036;SDS011;68434;59.896;30.474;2023-06-01T12:01:50;8.27;;;1.77;;
79036;SDS011;68434;59.896;30.474;2023-06-01T12:04:22;7.88;;;1.83;;
79036;SDS011;68434;59.896;30.474;2023-06-01T12:06:51;5.93;;;1.67;;
79036;SDS011;68434;59.896;30.474;2023-06-01T12:09:19;2.88;;;1.20;;
79036;SDS011;68434;59.896;30.474;2023-06-01T12:11:47;2.90;;;0.98;;
79036;SDS011;68434;59.896;30.474;2023-06-01T12:14:18;13.35;;;1.63;;
79036;SDS011;68434;59.896;30.474;2023-06-01T12:16:53;9.43;;;2.03;;
79036;SDS011;68434;59.896;30.474;2023-06-01T12:19:27;4.80;;;1.60;;
79036;SDS011;68434;59.896;30.474;2023-06-01T12:21:55;8.02;;;2.25;;
79036;SDS011;68434;59.896;30.474;2023-06-01T12:24:27;10.32;;;1.88;;
79036;SDS011;68434;59.896;30.474;2023-06-01T12:26:57;5.68;;;1.58;;
79036;SDS011;68434;59.896;30.474;2023-06-01T12:29:36;7.75;;;1.65;;
79036;SDS011;68434;59.896;30.474;2023-06-01T12:32:07;9.65;;;2.15;;
79036;SDS011;68434;59.896;30.474;2023-06-01T12:34:39;6.78;;;1.80;;
79036;SDS011;68434;59.896;30.474;2023-06-01T12:37:13;6.57;;;1.80;;
79036;SDS011;68434;59.896;30.474;2023-06-01T12:39:42;9.82;;;1.92;;
79036;SDS011;68434;59.896;30.474;2023-06-01T12:42:10;7.15;;;2.08;;
79036;SDS011;68434;59.896;30.474;2023-06-01T12:44:40;3.50;;;2.20;;
79036;SDS011;68434;59.896;30.474;2023-06-01T12:47:07;4.05;;;1.80;;
79036;SDS011;68434;59.896;30.474;2023-06-01T12:49:35;4.07;;;1.55;;
79036;SDS011;68434;59.896;30.474;2023-06-01T12:52:04;3.42;;;1.88;;
79036;SDS011;68434;59.896;30.474;2023-06-01T12:54:32;8.32;;;2.25;;
79036;SDS011;68434;59.896;30.474;2023-06-01T12:57:00;4.97;;;1.40;;
79036;SDS011;68434;59.896;30.474;2023-06-01T12:59:28;2.83;;;1.35;;
79036;SDS011;68434;59.896;30.474;2023-06-01T13:01:57;2.90;;;1.50;;
79036;SDS011;68434;59.896;30.474;2023-06-01T13:04:25;5.07;;;1.80;;
79036;SDS011;68434;59.896;30.474;2023-06-01T13:06:54;5.60;;;1.75;;
79036;SDS011;68434;59.896;30.474;2023-06-01T13:09:22;4.15;;;1.75;;
79036;SDS011;68434;59.896;30.474;2023-06-01T13:11:49;6.60;;;1.70;;
79036;SDS011;68434;59.896;30.474;2023-06-01T13:14:17;5.88;;;2.00;;
79036;SDS011;68434;59.896;30.474;2023-06-01T13:16:45;7.32;;;1.65;;
79036;SDS011;68434;59.896;30.474;2023-06-01T13:19:14;5.40;;;2.40;;
79036;SDS011;68434;59.896;30.474;2023-06-01T13:21:42;4.13;;;1.75;;
79036;SDS011;68434;59.896;30.474;2023-06-01T13:24:12;5.75;;;2.13;;
79036;SDS011;68434;59.896;30.474;2023-06-01T13:26:40;7.10;;;2.30;;
79036;SDS011;68434;59.896;30.474;2023-06-01T13:29:08;6.18;;;1.70;;
79036;SDS011;68434;59.896;30.474;2023-06-01T13:31:37;6.07;;;1.65;;
79036;SDS011;68434;59.896;30.474;2023-06-01T13:34:04;4.88;;;1.50;;
79036;SDS011;68434;59.896;30.474;2023-06-01T13:36:33;4.53;;;1.65;;
79036;SDS011;68434;59.896;30.474;2023-06-01T13:39:01;4.47;;;1.77;;
79036;SDS011;68434;59.896;30.474;2023-06-01T13:41:30;6.63;;;2.13;;
79036;SDS011;68434;59.896;30.474;2023-06-01T13:43:57;10.82;;;2.22;;
79036;SDS011;68434;59.896;30.474;2023-06-01T13:46:25;8.27;;;2.05;;
79036;SDS011;68434;59.896;30.474;2023-06-01T13:48:53;5.05;;;1.48;;
79036;SDS011;68434;59.896;30.474;2023-06-01T13:51:21;7.82;;;1.88;;
79036;SDS011;68434;59.896;30.474;2023-06-01T13:53:50;3.67;;;1.73;;
79036;SDS011;68434;59.896;30.474;2023-06-01T13:56:17;6.35;;;1.85;;
79036;SDS011;68434;59.896;30.474;2023-06-01T13:58:47;5.25;;;1.70;;
79036;SDS011;68434;59.896;30.474;2023-06-01T14:01:14;2.53;;;1.60;;
79036;SDS011;68434;59.896;30.474;2023-06-01T14:03:42;10.02;;;2.05;;
79036;SDS011;68434;59.896;30.474;2023-06-01T14:06:10;3.88;;;1.50;;
79036;SDS011;68434;59.896;30.474;2023-06-01T14:08:37;7.45;;;2.00;;
79036;SDS011;68434;59.896;30.474;2023-06-01T14:11:07;4.90;;;2.38;;
79036;SDS011;68434;59.896;30.474;2023-06-01T14:13:35;4.80;;;2.85;;
79036;SDS011;68434;59.896;30.474;2023-06-01T14:16:03;8.15;;;2.45;;
79036;SDS011;68434;59.896;30.474;2023-06-01T14:18:31;6.15;;;1.80;;
79036;SDS011;68434;59.896;30.474;2023-06-01T14:20:59;5.03;;;1.70;;
79036;SDS011;68434;59.896;30.474;2023-06-01T14:23:28;3.28;;;1.70;;
79036;SDS011;68434;59.896;30.474;2023-06-01T14:25:56;5.43;;;1.88;;
79036;SDS011;68434;59.896;30.474;2023-06-01T14:28:25;5.53;;;1.77;;
79036;SDS011;68434;59.896;30.474;2023-06-01T14:30:53;4.93;;;1.80;;
79036;SDS011;68434;59.896;30.474;2023-06-01T14:33:21;8.13;;;2.00;;
79036;SDS011;68434;59.896;30.474;2023-06-01T14:35:48;8.73;;;2.20;;
79036;SDS011;68434;59.896;30.474;2023-06-01T14:38:16;6.75;;;2.13;;
79036;SDS011;68434;59.896;30.474;2023-06-01T14:40:44;8.95;;;2.65;;
79036;SDS011;68434;59.896;30.474;2023-06-01T14:43:11;5.68;;;2.35;;
79036;SDS011;68434;59.896;30.474;2023-06-01T14:45:40;6.53;;;1.85;;
79036;SDS011;68434;59.896;30.474;2023-06-01T14:48:08;9.85;;;2.50;;
79036;SDS011;68434;59.896;30.474;2023-06-01T14:50:36;3.70;;;1.52;;
79036;SDS011;68434;59.896;30.474;2023-06-01T14:53:03;3.97;;;1.50;;
79036;SDS011;68434;59.896;30.474;2023-06-01T14:55:32;4.18;;;1.65;;
79036;SDS011;68434;59.896;30.474;2023-06-01T14:57:59;5.43;;;1.80;;
79036;SDS011;68434;59.896;30.474;2023-06-01T15:00:28;5.78;;;1.90;;
79036;SDS011;68434;59.896;30.474;2023-06-01T15:05:25;4.78;;;1.55;;
79036;SDS011;68434;59.896;30.474;2023-06-01T15:07:52;5.05;;;2.00;;
79036;SDS011;68434;59.896;30.474;2023-06-01T15:10:20;5.57;;;2.20;;
79036;SDS011;68434;59.896;30.474;2023-06-01T15:12:48;6.07;;;2.33;;
79036;SDS011;68434;59.896;30.474;2023-06-01T15:15:15;6.70;;;2.97;;
79036;SDS011;68434;59.896;30.474;2023-06-01T15:17:43;7.60;;;2.00;;
79036;SDS011;68434;59.896;30.474;2023-06-01T15:20:12;3.72;;;1.80;;
79036;SDS011;68434;59.896;30.474;2023-06-01T15:22:41;4.60;;;1.70;;
79036;SDS011;68434;59.896;30.474;2023-06-01T15:25:09;6.28;;;1.95;;
79036;SDS011;68434;59.896;30.474;2023-06-01T15:27:36;4.95;;;1.92;;
79036;SDS011;68434;59.896;30.474;2023-06-01T15:30:05;3.55;;;1.58;;
79036;SDS011;68434;59.896;30.474;2023-06-01T15:32:34;5.45;;;2.47;;
79036;SDS011;68434;59.896;30.474;2023-06-01T15:35:02;4.60;;;1.80;;
79036;SDS011;68434;59.896;30.474;2023-06-01T15:37:32;5.43;;;2.35;;
79036;SDS011;68434;59.896;30.474;2023-06-01T15:39:59;7.20;;;1.90;;
79036;SDS011;68434;59.896;30.474;2023-06-01T15:42:30;7.25;;;2.17;;
79036;SDS011;68434;59.896;30.474;2023-06-01T15:44:58;5.97;;;2.05;;
79036;SDS011;68434;59.896;30.474;2023-06-01T15:47:25;3.67;;;1.70;;
79036;SDS011;68434;59.896;30.474;2023-06-01T15:49:53;6.82;;;2.30;;